Time;durP1;ratioP1;P1;durP2;ratioP2;P2;SDS_P1;SDS_P2;PMS_P1;PMS_P2;Temp;Humidity;BMP_temperature;BMP_pressure;BME280_temperature;BME280_humidity;BME280_pressure;Samples;Min_cycle;Max_cycle;Signal;HPM_P1;HPM_P2
2021/12/22 00:02:09;;;;;;;27.40;13.20;;;-2.00;91.50;;;;;;5006741;28;20186;-60
2021/12/22 00:04:43;;;;;;;26.63;14.57;;;-2.00;90.80;;;;;;5007850;28;20182;-59
2021/12/22 00:07:09;;;;;;;30.47;14.20;;;-2.00;90.40;;;;;;5005441;28;20193;-59
2021/12/22 00:09:35;;;;;;;25.93;14.00;;;-2.10;88.90;;;;;;5006190;28;20825;-59
2021/12/22 00:12:01;;;;;;;21.43;12.70;;;-2.10;89.80;;;;;;5007511;28;20437;-60
2021/12/22 00:14:26;;;;;;;27.97;14.20;;;-2.10;90.60;;;;;;5008805;28;20862;-58
2021/12/22 00:16:52;;;;;;;25.10;13.70;;;-2.20;91.00;;;;;;5007910;28;20491;-60
2021/12/22 00:19:17;;;;;;;28.27;15.33;;;-2.20;90.80;;;;;;5007212;28;20824;-59
2021/12/22 00:21:43;;;;;;;24.27;13.77;;;-2.20;91.10;;;;;;5004206;28;20214;-60
2021/12/22 00:24:09;;;;;;;24.90;13.87;;;-2.20;91.10;;;;;;5008898;28;20192;-59
2021/12/22 00:26:34;;;;;;;24.23;12.50;;;-2.20;88.90;;;;;;5008870;28;20667;-59
2021/12/22 00:29:00;;;;;;;24.80;13.67;;;-2.20;87.70;;;;;;5008448;28;20227;-60
2021/12/22 00:31:26;;;;;;;27.43;14.07;;;-2.20;88.90;;;;;;5007373;28;20177;-59
2021/12/22 00:33:54;;;;;;;28.27;13.20;;;-2.30;88.30;;;;;;5008715;28;20422;-57
2021/12/22 00:36:22;;;;;;;32.60;15.13;;;-2.40;90.30;;;;;;5003176;28;20434;-59
2021/12/22 00:38:50;;;;;;;27.53;14.20;;;-2.40;90.90;;;;;;5009534;28;20451;-60
2021/12/22 00:41:16;;;;;;;27.20;14.50;;;-2.40;91.50;;;;;;5009977;28;20824;-60
2021/12/22 00:43:42;;;;;;;24.63;14.70;;;-2.40;91.70;;;;;;5009416;28;20441;-60
2021/12/22 00:46:07;;;;;;;27.50;15.27;;;-2.40;92.30;;;;;;5014009;28;20734;-60
2021/12/22 00:48:33;;;;;;;27.73;14.77;;;-2.30;92.30;;;;;;5011989;28;20460;-61
2021/12/22 00:51:00;;;;;;;29.07;15.07;;;-2.30;92.50;;;;;;5009443;28;20217;-60
2021/12/22 00:53:26;;;;;;;27.73;14.97;;;-2.30;92.70;;;;;;5010970;28;20439;-58
2021/12/22 00:55:52;;;;;;;25.87;14.40;;;-2.30;92.70;;;;;;5014493;28;20431;-59
2021/12/22 00:58:20;;;;;;;30.90;15.70;;;-2.30;92.60;;;;;;5011152;28;20487;-60
2021/12/22 01:00:47;;;;;;;26.37;14.23;;;-2.30;92.70;;;;;;5008658;28;20549;-60
2021/12/22 01:03:14;;;;;;;25.30;13.77;;;-2.30;92.80;;;;;;5008457;28;20481;-60
2021/12/22 01:05:40;;;;;;;30.87;14.83;;;-2.30;92.50;;;;;;5008701;28;20978;-59
2021/12/22 01:08:06;;;;;;;22.50;13.23;;;-2.30;92.20;;;;;;5011022;28;20446;-60
2021/12/22 01:10:33;;;;;;;28.53;14.23;;;-2.30;91.80;;;;;;5007027;28;20732;-59
2021/12/22 01:13:05;;;;;;;27.37;14.73;;;-2.30;92.00;;;;;;5007412;28;20947;-60
2021/12/22 01:15:31;;;;;;;23.87;13.53;;;-2.30;92.10;;;;;;5010364;28;20433;-59
2021/12/22 01:18:02;;;;;;;26.87;15.27;;;-2.30;91.90;;;;;;5013606;28;20425;-60
2021/12/22 01:20:35;;;;;;;30.30;13.90;;;-2.30;91.70;;;;;;5010281;28;20451;-60
2021/12/22 01:23:05;;;;;;;26.10;14.70;;;-2.30;92.30;;;;;;5009530;28;20433;-60
2021/12/22 01:25:41;;;;;;;29.27;14.30;;;-2.30;93.10;;;;;;5011646;28;20428;-59
2021/12/22 01:28:07;;;;;;;30.57;14.60;;;-2.30;93.10;;;;;;5011484;28;20933;-60
2021/12/22 01:30:33;;;;;;;32.13;15.57;;;-2.30;93.40;;;;;;5025945;28;20507;-59
2021/12/22 01:33:03;;;;;;;23.43;13.87;;;-2.30;93.30;;;;;;5009750;28;20663;-59
2021/12/22 01:35:32;;;;;;;32.03;14.70;;;-2.30;92.80;;;;;;5010862;28;20419;-59
2021/12/22 01:37:58;;;;;;;27.87;15.13;;;-2.30;92.40;;;;;;5010414;28;20485;-57
2021/12/22 01:40:25;;;;;;;30.23;14.47;;;-2.20;92.00;;;;;;5009795;28;20459;-60
2021/12/22 01:42:54;;;;;;;31.20;14.97;;;-2.20;92.00;;;;;;5008166;28;20434;-60
2021/12/22 01:45:54;;;;;;;33.00;15.00;;;-2.30;91.40;;;;;;5010089;28;20476;-59
2021/12/22 01:51:51;;;;;;;28.60;15.30;;;-2.40;91.50;;;;;;5008852;28;20821;-59
2021/12/22 01:54:19;;;;;;;27.87;14.50;;;-2.40;91.80;;;;;;5008917;28;20432;-60
2021/12/22 01:56:50;;;;;;;28.83;15.03;;;-2.40;92.50;;;;;;5010650;28;20416;-60
2021/12/22 01:59:16;;;;;;;28.47;14.50;;;-2.40;92.90;;;;;;5010721;28;20439;-60
2021/12/22 02:01:41;;;;;;;28.50;14.80;;;-2.50;92.80;;;;;;5006426;28;20510;-59
2021/12/22 02:04:10;;;;;;;31.40;16.00;;;-2.50;93.30;;;;;;5008373;28;20790;-60
2021/12/22 02:06:45;;;;;;;24.10;14.37;;;-2.40;92.80;;;;;;5007149;28;20672;-60
2021/12/22 02:09:15;;;;;;;29.83;15.23;;;-2.40;92.60;;;;;;5010206;28;20425;-59
2021/12/22 02:11:40;;;;;;;26.10;14.90;;;-2.40;92.30;;;;;;5008282;28;20435;-59
2021/12/22 02:14:07;;;;;;;31.13;16.40;;;-2.40;90.40;;;;;;5008612;28;20441;-60
2021/12/22 02:16:37;;;;;;;30.90;14.80;;;-2.50;90.50;;;;;;5010855;28;20175;-60
2021/12/22 02:19:07;;;;;;;26.90;14.90;;;-2.50;91.20;;;;;;5006937;28;21021;-59
2021/12/22 02:21:38;;;;;;;30.90;16.00;;;-2.50;91.50;;;;;;5026796;23;20437;-59
2021/12/22 02:24:04;;;;;;;32.23;16.70;;;-2.50;92.30;;;;;;5041833;28;20444;-57
2021/12/22 02:26:45;;;;;;;37.90;16.70;;;-2.50;92.80;;;;;;5027637;28;20733;-55
2021/12/22 02:29:34;;;;;;;29.23;14.77;;;-2.50;92.70;;;;;;5029351;28;20897;-57
2021/12/22 02:32:06;;;;;;;30.27;15.10;;;-2.50;92.20;;;;;;5021434;28;20452;-57
2021/12/22 02:34:40;;;;;;;33.90;16.40;;;-2.50;92.10;;;;;;5015358;28;20494;-59
2021/12/22 02:37:11;;;;;;;30.47;15.37;;;-2.50;92.20;;;;;;5015790;28;20474;-59
2021/12/22 02:39:37;;;;;;;34.27;15.83;;;-2.50;91.90;;;;;;5015388;28;20842;-55
2021/12/22 02:42:03;;;;;;;33.07;16.90;;;-2.50;91.90;;;;;;5015255;28;20461;-58
2021/12/22 02:44:28;;;;;;;29.70;16.10;;;-2.50;91.90;;;;;;5013790;28;20235;-58
2021/12/22 02:46:54;;;;;;;33.10;15.90;;;-2.40;91.80;;;;;;5015931;28;20868;-60
2021/12/22 02:49:20;;;;;;;34.07;16.47;;;-2.50;91.00;;;;;;5017640;28;20852;-60
2021/12/22 02:51:45;;;;;;;28.03;15.40;;;-2.50;91.00;;;;;;5014541;28;20290;-57
2021/12/22 02:54:18;;;;;;;32.57;16.17;;;-2.50;90.60;;;;;;5006615;28;20620;-56
2021/12/22 03:02:14;;;;;;;34.43;15.83;;;-2.60;91.30;;;;;;5001709;28;20539;-57
2021/12/22 03:04:50;;;;;;;32.07;17.17;;;-2.60;92.00;;;;;;5004084;28;20935;-56
2021/12/22 03:07:17;;;;;;;35.63;16.57;;;-2.60;92.10;;;;;;5002325;28;20437;-58
2021/12/22 03:09:44;;;;;;;31.60;15.83;;;-2.50;92.20;;;;;;5000927;28;20461;-58
2021/12/22 03:12:12;;;;;;;32.80;15.90;;;-2.60;91.80;;;;;;5004770;28;20452;-55
2021/12/22 03:14:39;;;;;;;32.43;15.83;;;-2.60;92.20;;;;;;5008446;28;20435;-58
2021/12/22 03:17:05;;;;;;;33.23;15.80;;;-2.60;92.20;;;;;;4999824;28;20664;-57
2021/12/22 03:19:34;;;;;;;31.80;16.90;;;-2.60;92.30;;;;;;5006722;28;20432;-59
2021/12/22 03:22:04;;;;;;;32.27;16.47;;;-2.60;92.20;;;;;;5003407;28;20464;-56
2021/12/22 03:24:32;;;;;;;33.80;18.30;;;-2.60;92.00;;;;;;5004149;28;20491;-60
2021/12/22 03:27:03;;;;;;;40.00;17.87;;;-2.60;91.80;;;;;;5004474;28;20531;-60
2021/12/22 03:29:33;;;;;;;34.50;18.10;;;-2.60;92.10;;;;;;5003262;28;20462;-57
2021/12/22 03:31:59;;;;;;;35.60;17.97;;;-2.60;91.50;;;;;;5006083;28;20436;-58
2021/12/22 03:34:26;;;;;;;34.50;17.50;;;-2.70;91.70;;;;;;5002353;28;20425;-65
2021/12/22 03:36:51;;;;;;;36.83;17.17;;;-2.70;92.50;;;;;;5002144;28;20817;-56
2021/12/22 03:39:17;;;;;;;35.40;18.40;;;-2.70;92.70;;;;;;5001576;28;20428;-59
2021/12/22 03:41:44;;;;;;;34.43;18.00;;;-2.70;92.50;;;;;;5000325;28;20649;-59
2021/12/22 03:44:11;;;;;;;36.30;18.37;;;-2.70;92.40;;;;;;5000227;28;20183;-60
2021/12/22 03:46:37;;;;;;;34.67;17.00;;;-2.70;93.40;;;;;;4998947;28;20455;-62
2021/12/22 03:49:05;;;;;;;33.70;17.67;;;-2.70;93.70;;;;;;5000781;28;20452;-61
2021/12/22 03:51:31;;;;;;;36.67;18.03;;;-2.70;93.70;;;;;;5001251;28;20529;-58
2021/12/22 03:53:57;;;;;;;33.20;17.20;;;-2.60;94.00;;;;;;5004603;28;20459;-58
2021/12/22 03:56:23;;;;;;;33.77;17.77;;;-2.60;93.80;;;;;;5004646;28;20443;-60
2021/12/22 03:58:49;;;;;;;28.50;15.33;;;-2.60;93.80;;;;;;5005765;28;20185;-57
2021/12/22 04:01:15;;;;;;;32.60;16.87;;;-2.60;93.40;;;;;;5004724;28;20205;-62
2021/12/22 04:03:44;;;;;;;34.70;18.07;;;-2.60;93.10;;;;;;5002839;28;20929;-56
2021/12/22 04:06:10;;;;;;;30.50;16.80;;;-2.60;93.20;;;;;;5001853;28;20448;-56
2021/12/22 04:08:35;;;;;;;33.47;17.13;;;-2.60;93.20;;;;;;5001515;28;20421;-60
2021/12/22 04:11:02;;;;;;;35.60;17.10;;;-2.60;92.90;;;;;;5003713;28;20527;-61
2021/12/22 04:13:27;;;;;;;35.13;17.17;;;-2.60;92.70;;;;;;5002421;28;20193;-61
2021/12/22 04:15:53;;;;;;;39.33;17.30;;;-2.60;92.40;;;;;;5006683;28;20448;-56
2021/12/22 04:18:20;;;;;;;38.50;18.00;;;-2.60;92.00;;;;;;5008400;28;20624;-58
2021/12/22 04:20:46;;;;;;;38.53;18.70;;;-2.60;92.20;;;;;;5008727;28;20192;-55
2021/12/22 04:23:12;;;;;;;31.83;16.70;;;-2.70;92.60;;;;;;5007471;28;20498;-61
2021/12/22 04:25:38;;;;;;;38.37;18.97;;;-2.70;92.50;;;;;;5006589;28;20955;-55
2021/12/22 04:28:08;;;;;;;35.10;17.10;;;-2.70;93.10;;;;;;5006874;28;20448;-58
2021/12/22 04:30:38;;;;;;;37.27;17.30;;;-2.70;92.40;;;;;;5004947;28;20900;-63
2021/12/22 04:33:04;;;;;;;37.50;18.47;;;-2.70;92.60;;;;;;5006592;28;20444;-63
2021/12/22 04:35:31;;;;;;;34.67;16.97;;;-2.70;92.60;;;;;;5006088;28;20427;-62
2021/12/22 04:37:57;;;;;;;36.73;16.70;;;-2.70;93.40;;;;;;5008163;28;20930;-60
2021/12/22 04:40:22;;;;;;;39.87;17.60;;;-2.70;94.00;;;;;;5005478;28;20460;-61
2021/12/22 04:42:48;;;;;;;35.83;17.40;;;-2.60;94.30;;;;;;5005491;28;20480;-60
2021/12/22 04:45:15;;;;;;;34.30;17.40;;;-2.60;94.10;;;;;;5010612;28;20327;-61
2021/12/22 04:47:42;;;;;;;39.07;17.73;;;-2.60;94.50;;;;;;5004180;28;20186;-59
2021/12/22 04:50:14;;;;;;;36.27;17.47;;;-2.60;94.30;;;;;;5005804;28;20472;-57
2021/12/22 04:53:07;;;;;;;34.80;17.73;;;-2.60;94.50;;;;;;5006180;28;20494;-61
2021/12/22 04:55:32;;;;;;;40.97;17.70;;;-2.60;94.70;;;;;;4993583;28;20499;-56
2021/12/22 04:57:59;;;;;;;42.50;18.43;;;-2.60;95.10;;;;;;5005968;28;20489;-56
2021/12/22 05:00:28;;;;;;;35.23;17.20;;;-2.60;96.70;;;;;;4999758;28;20538;-57
2021/12/22 05:02:55;;;;;;;36.63;17.63;;;-2.50;96.10;;;;;;5007826;28;20458;-58
2021/12/22 05:05:21;;;;;;;32.60;16.13;;;-2.50;94.50;;;;;;5002124;28;20934;-61
2021/12/22 05:07:47;;;;;;;33.90;16.33;;;-2.50;93.80;;;;;;5003487;28;20479;-64
2021/12/22 05:10:15;;;;;;;32.97;17.97;;;-2.60;93.60;;;;;;5002840;28;20507;-62
2021/12/22 05:12:42;;;;;;;34.23;17.00;;;-2.60;90.70;;;;;;5010950;28;20466;-61
2021/12/22 05:15:08;;;;;;;33.30;16.67;;;-2.60;91.40;;;;;;5024007;28;20437;-67
2021/12/22 05:18:00;;;;;;;35.03;17.90;;;-2.70;92.10;;;;;;5030144;28;20452;-63
2021/12/22 05:20:24;;;;;;;32.70;16.97;;;-2.70;92.70;;;;;;5025956;28;20428;-63
2021/12/22 05:22:50;;;;;;;34.47;16.20;;;-2.70;93.20;;;;;;5026816;28;20479;-65
2021/12/22 05:25:17;;;;;;;34.10;17.70;;;-2.80;93.10;;;;;;5024716;28;20442;-61
2021/12/22 05:27:42;;;;;;;39.13;18.07;;;-2.80;93.50;;;;;;5011477;28;20460;-61
2021/12/22 05:30:10;;;;;;;33.47;16.43;;;-2.80;93.60;;;;;;5032083;28;20966;-63
2021/12/22 05:32:37;;;;;;;33.63;17.77;;;-2.80;93.40;;;;;;5024803;28;20434;-61
2021/12/22 05:35:07;;;;;;;38.60;17.43;;;-2.80;93.60;;;;;;5010027;28;20421;-60
2021/12/22 05:37:33;;;;;;;38.60;17.43;;;-2.80;93.40;;;;;;4998476;28;20448;-59
2021/12/22 05:39:58;;;;;;;31.47;17.20;;;-2.80;93.70;;;;;;4996857;28;20457;-60
2021/12/22 05:42:25;;;;;;;32.17;16.37;;;-2.80;93.20;;;;;;4999514;28;20460;-59
2021/12/22 05:44:51;;;;;;;34.00;15.93;;;-2.80;92.80;;;;;;4997632;28;20177;-60
2021/12/22 05:47:17;;;;;;;34.40;18.87;;;-2.80;92.70;;;;;;4998445;28;20430;-61
2021/12/22 05:49:44;;;;;;;37.03;17.70;;;-2.80;92.60;;;;;;5006044;28;20293;-62
2021/12/22 05:52:11;;;;;;;34.27;16.63;;;-2.80;92.50;;;;;;5002055;28;20615;-61
2021/12/22 05:54:37;;;;;;;34.37;17.83;;;-2.80;92.60;;;;;;5000228;28;20325;-59
2021/12/22 05:57:03;;;;;;;34.30;17.03;;;-2.80;92.90;;;;;;4997390;28;20440;-61
2021/12/22 05:59:29;;;;;;;35.30;17.37;;;-2.80;93.00;;;;;;5002530;28;20443;-59
2021/12/22 06:01:55;;;;;;;32.77;16.30;;;-2.80;92.80;;;;;;5005187;28;20564;-59
2021/12/22 06:04:20;;;;;;;40.20;18.70;;;-2.90;93.20;;;;;;5006361;28;20248;-59
2021/12/22 06:06:46;;;;;;;38.37;19.13;;;-2.90;93.50;;;;;;5001317;28;20449;-57
2021/12/22 06:09:11;;;;;;;35.87;17.10;;;-2.90;93.80;;;;;;5006994;28;20216;-58
2021/12/22 06:11:37;;;;;;;37.90;17.90;;;-2.90;94.10;;;;;;5008947;28;20197;-57
2021/12/22 06:14:03;;;;;;;38.63;18.50;;;-2.90;94.20;;;;;;5004901;28;20638;-62
2021/12/22 06:16:30;;;;;;;37.30;18.20;;;-2.80;94.10;;;;;;5007133;28;20181;-56
2021/12/22 06:18:58;;;;;;;42.27;19.00;;;-2.80;94.00;;;;;;5008347;28;20589;-58
2021/12/22 06:21:24;;;;;;;34.13;16.57;;;-2.80;93.70;;;;;;5007999;28;20447;-60
2021/12/22 06:23:50;;;;;;;40.97;17.50;;;-2.90;94.00;;;;;;5007715;28;20546;-59
2021/12/22 06:26:16;;;;;;;37.60;17.87;;;-2.90;94.30;;;;;;5009169;28;20784;-58
2021/12/22 06:28:42;;;;;;;34.37;17.50;;;-2.90;94.40;;;;;;5008233;28;20438;-58
2021/12/22 06:31:08;;;;;;;41.23;19.17;;;-2.90;94.50;;;;;;5004156;28;20464;-58
2021/12/22 06:33:33;;;;;;;41.77;19.87;;;-2.80;94.70;;;;;;5004944;28;20209;-59
2021/12/22 06:35:59;;;;;;;42.90;19.87;;;-2.90;94.60;;;;;;5004402;28;20183;-58
2021/12/22 06:38:25;;;;;;;36.37;18.07;;;-2.90;94.20;;;;;;5004279;28;20554;-59
2021/12/22 06:40:51;;;;;;;40.53;18.97;;;-2.90;94.50;;;;;;5008785;28;20189;-57
2021/12/22 06:43:16;;;;;;;44.67;19.87;;;-2.90;94.70;;;;;;5004711;28;20201;-59
2021/12/22 06:45:42;;;;;;;35.87;16.97;;;-2.90;94.30;;;;;;5001477;28;20188;-58
2021/12/22 06:48:08;;;;;;;40.47;18.87;;;-3.00;94.70;;;;;;5004230;28;20445;-60
2021/12/22 06:50:34;;;;;;;37.33;17.20;;;-3.00;95.20;;;;;;4994494;28;20218;-57
2021/12/22 06:52:59;;;;;;;43.90;18.93;;;-3.00;95.50;;;;;;5013739;28;20207;-63
2021/12/22 06:55:25;;;;;;;43.90;19.80;;;-3.00;95.40;;;;;;5025316;28;20182;-63
2021/12/22 06:57:51;;;;;;;41.63;19.33;;;-3.00;95.50;;;;;;4998738;28;20268;-59
2021/12/22 07:00:18;;;;;;;41.87;19.20;;;-3.00;95.70;;;;;;5010414;28;20175;-58
2021/12/22 07:02:43;;;;;;;37.50;18.90;;;-3.00;95.50;;;;;;5006266;28;20573;-58
2021/12/22 07:05:11;;;;;;;35.90;18.27;;;-3.00;95.80;;;;;;5008484;28;20969;-59
2021/12/22 07:07:38;;;;;;;36.57;18.13;;;-3.00;96.30;;;;;;4999092;28;20178;-58
2021/12/22 07:10:07;;;;;;;40.37;18.27;;;-3.00;96.30;;;;;;5006791;28;20488;-58
2021/12/22 07:12:40;;;;;;;39.87;18.23;;;-3.00;96.30;;;;;;5010725;28;20442;-60
2021/12/22 07:15:09;;;;;;;42.17;18.87;;;-2.90;96.30;;;;;;5009253;28;20430;-58
2021/12/22 07:17:39;;;;;;;39.00;18.67;;;-2.90;96.30;;;;;;4999198;28;20448;-58
2021/12/22 07:20:05;;;;;;;42.80;19.57;;;-3.00;95.90;;;;;;5008718;28;21024;-59
2021/12/22 07:22:32;;;;;;;41.37;19.80;;;-3.00;96.50;;;;;;5004597;28;20479;-58
2021/12/22 07:24:58;;;;;;;35.73;17.57;;;-3.00;96.70;;;;;;5008302;28;20452;-59
2021/12/22 07:27:24;;;;;;;44.00;19.40;;;-3.00;96.90;;;;;;5005941;28;20443;-58
2021/12/22 07:29:50;;;;;;;41.67;18.03;;;-2.90;96.90;;;;;;5010034;28;20824;-60
2021/12/22 07:32:15;;;;;;;46.03;20.60;;;-2.90;96.90;;;;;;5020921;28;20204;-63
2021/12/22 07:34:51;;;;;;;44.33;19.90;;;-2.90;96.90;;;;;;5030855;28;20161;-61
2021/12/22 07:37:39;;;;;;;41.43;18.80;;;-2.90;96.80;;;;;;5030630;28;20579;-61
2021/12/22 07:40:07;;;;;;;46.77;18.57;;;-2.90;95.70;;;;;;5014047;28;20515;-63
2021/12/22 07:42:33;;;;;;;38.30;18.60;;;-3.00;96.00;;;;;;5029816;28;20428;-63
2021/12/22 07:44:58;;;;;;;40.67;18.00;;;-3.00;96.60;;;;;;5031141;28;20463;-60
2021/12/22 07:47:24;;;;;;;45.13;18.93;;;-3.00;96.30;;;;;;5023725;28;20632;-59
2021/12/22 07:49:50;;;;;;;43.47;19.53;;;-3.00;96.90;;;;;;5000509;28;20861;-57
2021/12/22 07:52:16;;;;;;;47.77;18.50;;;-3.00;96.60;;;;;;4996342;28;20592;-60
2021/12/22 07:54:42;;;;;;;45.13;18.77;;;-3.00;97.10;;;;;;5019188;28;20930;-59
2021/12/22 07:57:08;;;;;;;41.43;19.10;;;-3.00;97.30;;;;;;4999061;28;20615;-59
2021/12/22 07:59:33;;;;;;;37.00;19.20;;;-3.00;97.30;;;;;;5006540;28;20183;-59
2021/12/22 08:01:59;;;;;;;40.57;19.50;;;-3.00;96.30;;;;;;5005996;28;20295;-60
2021/12/22 08:04:25;;;;;;;43.27;20.70;;;-3.10;96.80;;;;;;5004724;28;20711;-59
2021/12/22 08:06:51;;;;;;;46.00;19.87;;;-3.00;97.50;;;;;;5001263;28;20198;-59
2021/12/22 08:09:17;;;;;;;44.67;20.60;;;-3.00;97.50;;;;;;5008033;28;20428;-60
2021/12/22 08:11:43;;;;;;;46.77;19.27;;;-3.00;97.80;;;;;;5015754;28;20204;-60
2021/12/22 08:14:09;;;;;;;54.67;20.37;;;-3.00;98.00;;;;;;5012597;28;20442;-58
2021/12/22 08:16:34;;;;;;;42.37;20.00;;;-3.00;98.20;;;;;;5010336;28;20937;-59
2021/12/22 08:19:00;;;;;;;45.30;19.67;;;-3.00;98.70;;;;;;5014141;28;20829;-60
2021/12/22 08:21:26;;;;;;;42.93;18.77;;;-2.90;98.40;;;;;;5016522;28;20180;-58
2021/12/22 08:23:51;;;;;;;40.13;18.00;;;-2.90;97.00;;;;;;5035825;23;20233;-59
2021/12/22 08:26:17;;;;;;;44.43;19.53;;;-2.90;97.20;;;;;;5027634;28;20591;-59
2021/12/22 08:28:46;;;;;;;45.40;20.87;;;-2.90;97.50;;;;;;5027004;28;20194;-59
2021/12/22 08:31:12;;;;;;;43.23;19.17;;;-2.90;97.30;;;;;;5026075;28;20244;-59
2021/12/22 08:33:44;;;;;;;43.63;19.93;;;-2.90;96.50;;;;;;5040395;28;20888;-59
2021/12/22 08:38:54;;;;;;;37.37;18.40;;;-2.90;96.60;;;;;;5027526;28;20433;-60
2021/12/22 08:41:29;;;;;;;41.40;18.97;;;-2.90;96.50;;;;;;5025950;28;20417;-59
2021/12/22 08:43:58;;;;;;;43.07;18.87;;;-2.90;96.80;;;;;;5029084;28;20447;-59
2021/12/22 08:46:24;;;;;;;44.93;20.80;;;-2.80;97.20;;;;;;5028690;28;20418;-59
2021/12/22 08:48:50;;;;;;;43.03;20.30;;;-2.80;97.50;;;;;;5026647;28;20435;-59
2021/12/22 08:51:16;;;;;;;41.47;19.60;;;-2.80;97.70;;;;;;5027545;28;21042;-59
2021/12/22 08:53:42;;;;;;;43.53;18.90;;;-2.70;97.60;;;;;;5028046;28;20193;-59
2021/12/22 08:56:08;;;;;;;40.57;18.30;;;-2.70;97.30;;;;;;5027504;28;20438;-60
2021/12/22 08:58:34;;;;;;;40.93;19.23;;;-2.70;97.20;;;;;;5027001;28;20415;-60
2021/12/22 09:01:00;;;;;;;39.13;18.20;;;-2.70;96.70;;;;;;5028845;28;20176;-60
2021/12/22 09:03:26;;;;;;;45.80;20.70;;;-2.60;96.70;;;;;;5031484;28;20470;-59
2021/12/22 09:05:52;;;;;;;43.93;18.70;;;-2.60;96.60;;;;;;5030393;28;20454;-59
2021/12/22 09:08:18;;;;;;;48.30;20.80;;;-2.60;96.00;;;;;;5030543;28;20276;-59
2021/12/22 09:10:43;;;;;;;43.50;18.00;;;-2.70;96.00;;;;;;5031311;28;20482;-58
2021/12/22 09:13:09;;;;;;;49.40;21.13;;;-2.70;96.70;;;;;;5030974;28;20738;-60
2021/12/22 09:15:36;;;;;;;47.40;21.67;;;-2.70;97.30;;;;;;5030088;28;20671;-58
2021/12/22 09:18:02;;;;;;;44.97;19.20;;;-2.70;97.30;;;;;;5029661;28;20180;-60
2021/12/22 09:20:29;;;;;;;47.40;19.40;;;-2.60;97.30;;;;;;5031230;28;20400;-60
2021/12/22 09:22:55;;;;;;;50.43;20.73;;;-2.60;97.20;;;;;;5029779;28;20345;-60
2021/12/22 09:25:21;;;;;;;46.53;19.67;;;-2.50;97.40;;;;;;5029844;28;20451;-60
2021/12/22 09:27:46;;;;;;;41.23;18.80;;;-2.50;97.10;;;;;;5031700;28;20450;-60
2021/12/22 09:30:12;;;;;;;43.40;19.13;;;-2.50;96.90;;;;;;5030422;28;20200;-59
2021/12/22 09:32:38;;;;;;;41.67;19.60;;;-2.50;96.70;;;;;;5011884;28;20733;-60
2021/12/22 09:35:04;;;;;;;41.57;20.07;;;-2.50;97.00;;;;;;5024039;28;20989;-60
2021/12/22 09:37:30;;;;;;;42.93;20.50;;;-2.50;97.00;;;;;;5029305;28;20769;-60
2021/12/22 09:39:56;;;;;;;52.07;20.20;;;-2.40;97.00;;;;;;5031086;28;20493;-59
2021/12/22 09:42:22;;;;;;;43.37;21.50;;;-2.40;96.70;;;;;;5031334;28;20462;-60
2021/12/22 09:44:48;;;;;;;46.43;20.77;;;-2.40;96.30;;;;;;5031399;28;20182;-59
2021/12/22 09:47:24;;;;;;;54.67;22.67;;;-2.40;96.80;;;;;;5029574;28;20645;-60
2021/12/22 09:50:06;;;;;;;51.80;22.07;;;-2.40;96.50;;;;;;5031362;28;20892;-61
2021/12/22 09:52:34;;;;;;;42.57;19.47;;;-2.40;96.70;;;;;;5026603;28;20897;-59
2021/12/22 09:55:01;;;;;;;42.53;18.83;;;-2.50;96.50;;;;;;5033686;28;20464;-60
2021/12/22 09:57:28;;;;;;;45.07;20.43;;;-2.50;97.00;;;;;;5030937;28;20489;-60
2021/12/22 09:59:56;;;;;;;47.70;20.27;;;-2.50;97.10;;;;;;5031770;28;20434;-60
2021/12/22 10:02:25;;;;;;;49.80;21.70;;;-2.50;97.20;;;;;;5025718;28;20452;-60
2021/12/22 10:04:51;;;;;;;39.60;18.20;;;-2.40;96.90;;;;;;5026162;28;20462;-60
2021/12/22 10:07:25;;;;;;;47.40;20.10;;;-2.40;96.80;;;;;;5030704;28;20942;-59
2021/12/22 10:09:51;;;;;;;38.87;19.43;;;-2.40;95.10;;;;;;5029816;28;20713;-60
2021/12/22 10:12:25;;;;;;;46.93;21.30;;;-2.50;95.90;;;;;;5025037;28;20444;-59
2021/12/22 10:15:00;;;;;;;40.00;19.90;;;-2.50;96.80;;;;;;5025397;28;20413;-60
2021/12/22 10:17:42;;;;;;;45.17;20.20;;;-2.40;97.50;;;;;;5026724;28;20443;-59
2021/12/22 10:20:14;;;;;;;43.73;19.40;;;-2.40;97.00;;;;;;5029473;28;20546;-60
2021/12/22 10:22:58;;;;;;;49.83;19.90;;;-2.30;96.50;;;;;;5030901;28;20874;-60
2021/12/22 10:25:31;;;;;;;47.67;20.27;;;-2.30;96.20;;;;;;5028486;28;20735;-60
2021/12/22 10:28:07;;;;;;;40.00;18.17;;;-2.30;95.90;;;;;;5025627;28;20423;-60
2021/12/22 10:30:39;;;;;;;46.03;20.63;;;-2.30;96.00;;;;;;5037793;28;20458;-60
2021/12/22 10:33:09;;;;;;;47.53;20.70;;;-2.30;95.90;;;;;;5029655;28;20486;-60
2021/12/22 10:35:38;;;;;;;45.80;20.73;;;-2.30;95.50;;;;;;5030058;28;20875;-60
2021/12/22 10:38:04;;;;;;;48.87;21.43;;;-2.30;95.00;;;;;;5029567;28;20447;-60
2021/12/22 10:40:36;;;;;;;50.67;21.93;;;-2.30;95.20;;;;;;5025069;28;20463;-59
2021/12/22 10:43:03;;;;;;;51.67;21.40;;;-2.30;95.80;;;;;;5022277;28;20454;-61
2021/12/22 10:45:32;;;;;;;50.97;20.97;;;-2.20;95.70;;;;;;5024238;28;20477;-61
2021/12/22 10:50:45;;;;;;;44.50;19.83;;;-2.20;95.70;;;;;;5022111;28;20494;-60
2021/12/22 10:53:14;;;;;;;47.30;19.03;;;-2.10;95.40;;;;;;5019869;28;20821;-59
2021/12/22 10:55:46;;;;;;;49.90;20.73;;;-2.10;95.60;;;;;;5020064;28;20482;-59
2021/12/22 10:58:19;;;;;;;40.33;18.57;;;-2.10;95.80;;;;;;5027306;28;20431;-59
2021/12/22 11:01:02;;;;;;;45.87;21.20;;;-2.10;95.20;;;;;;5014223;28;20431;-60
2021/12/22 11:03:51;;;;;;;39.30;18.53;;;-2.10;94.80;;;;;;5025447;28;20450;-61
2021/12/22 11:06:21;;;;;;;42.43;20.50;;;-2.10;95.10;;;;;;5020505;28;21007;-59
2021/12/22 11:09:08;;;;;;;43.60;19.77;;;-2.10;95.30;;;;;;5022944;28;20424;-59
2021/12/22 11:11:39;;;;;;;38.53;17.57;;;-2.10;95.40;;;;;;5019342;28;20466;-59
2021/12/22 11:14:11;;;;;;;40.40;18.57;;;-2.00;95.40;;;;;;5020642;28;21041;-60
2021/12/22 11:16:52;;;;;;;43.13;18.57;;;-2.00;94.90;;;;;;5019690;28;20429;-60
2021/12/22 11:19:18;;;;;;;39.80;19.27;;;-2.00;94.50;;;;;;5023191;28;20428;-61
2021/12/22 11:22:06;;;;;;;39.60;18.47;;;-2.10;93.90;;;;;;5022538;28;20441;-59
2021/12/22 11:24:34;;;;;;;40.20;17.73;;;-2.10;93.90;;;;;;5021628;28;20189;-59
2021/12/22 11:27:01;;;;;;;38.83;16.77;;;-2.20;94.60;;;;;;5022285;28;20442;-59
2021/12/22 11:29:28;;;;;;;35.47;15.70;;;-2.20;95.20;;;;;;5016198;28;20484;-61
2021/12/22 11:31:54;;;;;;;36.67;15.77;;;-2.20;95.30;;;;;;5013560;28;20441;-60
2021/12/22 11:34:22;;;;;;;41.77;17.67;;;-2.30;95.70;;;;;;5021343;28;20435;-59
2021/12/22 11:36:50;;;;;;;39.93;17.93;;;-2.30;96.30;;;;;;5025671;28;20433;-57
2021/12/22 11:39:16;;;;;;;38.10;17.20;;;-2.30;97.20;;;;;;5035707;28;20467;-59
2021/12/22 11:41:54;;;;;;;38.77;17.63;;;-2.30;97.80;;;;;;5021387;28;20520;-58
2021/12/22 11:44:23;;;;;;;42.87;18.40;;;-2.20;98.20;;;;;;5012600;28;20456;-60
2021/12/22 11:46:50;;;;;;;39.63;16.40;;;-2.20;98.60;;;;;;5020278;28;20444;-60
2021/12/22 11:49:20;;;;;;;41.13;17.13;;;-2.10;98.00;;;;;;5019324;28;20942;-59
2021/12/22 11:51:46;;;;;;;39.30;17.67;;;-2.10;97.80;;;;;;5015218;28;21103;-59
2021/12/22 11:54:13;;;;;;;42.63;18.27;;;-2.20;97.40;;;;;;5019216;28;20453;-58
2021/12/22 11:56:40;;;;;;;42.80;17.03;;;-2.20;97.80;;;;;;5021696;28;20251;-59
2021/12/22 11:59:23;;;;;;;46.20;18.10;;;-2.20;98.50;;;;;;5022194;28;20441;-60
2021/12/22 12:02:26;;;;;;;39.77;16.30;;;-2.20;98.90;;;;;;5019075;28;20934;-59
2021/12/22 12:04:55;;;;;;;43.67;18.30;;;-2.10;99.10;;;;;;5024723;28;20431;-60
2021/12/22 12:07:44;;;;;;;40.57;18.40;;;-2.10;98.90;;;;;;5016944;28;20946;-58
2021/12/22 12:10:28;;;;;;;42.10;19.00;;;-2.00;98.90;;;;;;5019695;28;21853;-60
2021/12/22 12:13:00;;;;;;;39.47;17.33;;;-2.00;97.50;;;;;;5009385;28;20457;-59
2021/12/22 12:22:19;;;;;;;42.10;17.37;;;-1.90;98.40;;;;;;5023052;28;20479;-59
2021/12/22 12:24:57;;;;;;;44.90;16.50;;;-1.90;98.50;;;;;;5018252;28;20438;-59
2021/12/22 12:27:37;;;;;;;41.93;16.67;;;-1.80;98.70;;;;;;5019784;28;20857;-60
2021/12/22 12:30:07;;;;;;;34.40;17.20;;;-1.80;99.00;;;;;;5019170;28;20917;-60
2021/12/22 12:32:39;;;;;;;43.33;18.43;;;-1.80;98.60;;;;;;5017015;28;20448;-59
2021/12/22 12:38:14;;;;;;;51.10;18.27;;;-1.80;98.90;;;;;;5018940;28;20410;-59
2021/12/22 12:40:57;;;;;;;39.17;16.90;;;-1.80;98.90;;;;;;5019099;28;20515;-60
2021/12/22 12:46:38;;;;;;;41.47;17.93;;;-1.90;98.40;;;;;;5021289;28;20435;-59
2021/12/22 12:49:04;;;;;;;40.00;18.13;;;-1.90;99.20;;;;;;5023346;28;21009;-59
2021/12/22 12:51:33;;;;;;;41.83;18.87;;;-1.80;99.40;;;;;;5023449;28;20465;-59
2021/12/22 12:54:08;;;;;;;44.13;19.37;;;-1.80;99.80;;;;;;5018087;28;20193;-60
2021/12/22 12:56:41;;;;;;;47.37;18.37;;;-1.80;99.90;;;;;;5021146;28;20419;-60
2021/12/22 12:59:12;;;;;;;39.80;18.10;;;-1.70;99.90;;;;;;5023328;28;20727;-60
2021/12/22 13:01:47;;;;;;;45.67;19.83;;;-1.70;99.80;;;;;;5021106;28;20427;-60
2021/12/22 13:04:26;;;;;;;40.60;17.80;;;-1.70;99.70;;;;;;5016074;28;20477;-59